KLAN/LAN METAR and TAF weather

Enter ICAO airport designator
Station Type Date Time Source
KLAN METAR 2022/10/01 07:53 UTC NOAA

KLAN 010753Z 00000KT 10SM CLR 07/06 A3020 RMK AO2 SLP226 T00720061


Station Type Date Time Source
KLAN Decoded METAR 2022/10/01 07:53 UTC NOAA

CAPITAL CITY AIRPORT, MI, United States (KLAN) 42-47N 084-35W 264M
Oct 01, 2022 - 03:53 AM EDT / 2022.10.01 0753 UTC
Wind: Calm:0
Visibility: 10 mile(s):0
Sky conditions: clear
Temperature: 45.0 F (7.2 C)
Dew Point: 43.0 F (6.1 C)
Relative Humidity: 92%
Pressure (altimeter): 30.2 in. Hg (1022 hPa)
ob: KLAN 010753Z 00000KT 10SM CLR 07/06 A3020 RMK AO2 SLP226 T00720061
cycle: 8

Station Type Date Time Source
KLAN TAF 2022/10/01 06:33 UTC NOAA

TAF KLAN 010530Z 0106/0206 03005KT P6SM SKC
FM020000 04006KT P6SM SKC

Example: see airport list